sensor_id;sensor_type;location;lat;lon;timestamp;temperature;humidity
18426;DHT22;9340;48.756;9.226;2023-07-31T00:08:29;14.10;99.90
18426;DHT22;9340;48.756;9.226;2023-07-31T00:14:47;13.90;99.90
18426;DHT22;9340;48.756;9.226;2023-07-31T00:17:14;13.90;99.90
18426;DHT22;9340;48.756;9.226;2023-07-31T00:19:41;13.80;99.90
18426;DHT22;9340;48.756;9.226;2023-07-31T00:22:07;13.80;99.90
18426;DHT22;9340;48.756;9.226;2023-07-31T00:24:34;13.80;99.90
18426;DHT22;9340;48.756;9.226;2023-07-31T00:27:01;13.80;99.90
18426;DHT22;9340;48.756;9.226;2023-07-31T00:29:27;13.70;99.90
18426;DHT22;9340;48.756;9.226;2023-07-31T00:31:55;13.70;99.90
18426;DHT22;9340;48.756;9.226;2023-07-31T00:34:22;13.70;99.90
18426;DHT22;9340;48.756;9.226;2023-07-31T00:36:49;13.70;99.90
18426;DHT22;9340;48.756;9.226;2023-07-31T00:39:15;13.70;99.90
18426;DHT22;9340;48.756;9.226;2023-07-31T00:41:42;13.70;99.90
18426;DHT22;9340;48.756;9.226;2023-07-31T00:44:09;13.70;99.90
18426;DHT22;9340;48.756;9.226;2023-07-31T00:46:36;13.70;99.90
18426;DHT22;9340;48.756;9.226;2023-07-31T00:49:05;13.70;99.90
18426;DHT22;9340;48.756;9.226;2023-07-31T00:51:32;13.60;99.90
18426;DHT22;9340;48.756;9.226;2023-07-31T00:53:59;13.60;99.90
18426;DHT22;9340;48.756;9.226;2023-07-31T00:56:26;13.60;99.90
18426;DHT22;9340;48.756;9.226;2023-07-31T00:58:54;13.50;99.90
18426;DHT22;9340;48.756;9.226;2023-07-31T01:01:21;13.60;99.90
18426;DHT22;9340;48.756;9.226;2023-07-31T01:03:48;13.50;99.90
18426;DHT22;9340;48.756;9.226;2023-07-31T01:06:26;13.60;99.90
18426;DHT22;9340;48.756;9.226;2023-07-31T01:09:00;13.60;99.90
18426;DHT22;9340;48.756;9.226;2023-07-31T01:11:29;13.60;99.90
18426;DHT22;9340;48.756;9.226;2023-07-31T01:13:57;13.60;99.90
18426;DHT22;9340;48.756;9.226;2023-07-31T01:16:25;13.60;99.90
18426;DHT22;9340;48.756;9.226;2023-07-31T01:18:52;13.50;99.90
18426;DHT22;9340;48.756;9.226;2023-07-31T01:21:47;13.50;99.90
18426;DHT22;9340;48.756;9.226;2023-07-31T01:24:27;13.50;99.90
18426;DHT22;9340;48.756;9.226;2023-07-31T01:26:59;13.40;99.90
18426;DHT22;9340;48.756;9.226;2023-07-31T01:29:32;13.40;99.90
18426;DHT22;9340;48.756;9.226;2023-07-31T01:32:02;13.30;99.90
18426;DHT22;9340;48.756;9.226;2023-07-31T01:34:29;13.30;99.90
18426;DHT22;9340;48.756;9.226;2023-07-31T01:36:56;13.20;99.90
18426;DHT22;9340;48.756;9.226;2023-07-31T01:39:24;13.10;99.90
18426;DHT22;9340;48.756;9.226;2023-07-31T01:41:50;13.20;99.90
18426;DHT22;9340;48.756;9.226;2023-07-31T01:44:18;13.20;99.90
18426;DHT22;9340;48.756;9.226;2023-07-31T01:46:45;13.20;99.90
18426;DHT22;9340;48.756;9.226;2023-07-31T01:49:12;13.20;99.90
18426;DHT22;9340;48.756;9.226;2023-07-31T01:51:39;13.20;99.90
18426;DHT22;9340;48.756;9.226;2023-07-31T01:54:06;13.20;99.90
18426;DHT22;9340;48.756;9.226;2023-07-31T01:56:32;13.20;99.90
18426;DHT22;9340;48.756;9.226;2023-07-31T01:58:59;13.20;99.90
18426;DHT22;9340;48.756;9.226;2023-07-31T02:01:27;13.10;99.90
18426;DHT22;9340;48.756;9.226;2023-07-31T02:03:53;13.10;99.90
18426;DHT22;9340;48.756;9.226;2023-07-31T02:06:20;13.10;99.90
18426;DHT22;9340;48.756;9.226;2023-07-31T02:08:48;13.10;99.90
18426;DHT22;9340;48.756;9.226;2023-07-31T02:11:14;13.10;99.90
18426;DHT22;9340;48.756;9.226;2023-07-31T02:13:41;13.10;99.90
18426;DHT22;9340;48.756;9.226;2023-07-31T02:16:08;13.10;99.90
18426;DHT22;9340;48.756;9.226;2023-07-31T02:18:36;13.10;99.90
18426;DHT22;9340;48.756;9.226;2023-07-31T02:21:02;13.10;99.90
18426;DHT22;9340;48.756;9.226;2023-07-31T02:23:29;13.00;99.90
18426;DHT22;9340;48.756;9.226;2023-07-31T02:25:56;13.10;99.90
18426;DHT22;9340;48.756;9.226;2023-07-31T02:28:22;13.00;99.90
18426;DHT22;9340;48.756;9.226;2023-07-31T02:30:50;13.10;99.90
18426;DHT22;9340;48.756;9.226;2023-07-31T02:33:17;13.20;99.90
18426;DHT22;9340;48.756;9.226;2023-07-31T02:35:45;13.20;99.90
18426;DHT22;9340;48.756;9.226;2023-07-31T02:38:11;13.20;99.90
18426;DHT22;9340;48.756;9.226;2023-07-31T02:40:39;13.20;99.90
18426;DHT22;9340;48.756;9.226;2023-07-31T02:43:06;13.30;99.90
18426;DHT22;9340;48.756;9.226;2023-07-31T02:45:33;13.40;99.90
18426;DHT22;9340;48.756;9.226;2023-07-31T02:47:59;13.40;99.90
18426;DHT22;9340;48.756;9.226;2023-07-31T02:50:26;13.40;99.90
18426;DHT22;9340;48.756;9.226;2023-07-31T02:52:55;13.50;99.90
18426;DHT22;9340;48.756;9.226;2023-07-31T02:55:22;13.50;99.90
18426;DHT22;9340;48.756;9.226;2023-07-31T02:57:48;13.40;99.90
18426;DHT22;9340;48.756;9.226;2023-07-31T03:00:17;13.40;99.90
18426;DHT22;9340;48.756;9.226;2023-07-31T03:02:44;13.30;99.90
18426;DHT22;9340;48.756;9.226;2023-07-31T03:05:11;13.30;99.90
18426;DHT22;9340;48.756;9.226;2023-07-31T03:07:38;13.30;99.90
18426;DHT22;9340;48.756;9.226;2023-07-31T03:10:07;13.30;99.90
18426;DHT22;9340;48.756;9.226;2023-07-31T03:12:34;13.30;99.90
18426;DHT22;9340;48.756;9.226;2023-07-31T03:15:01;13.30;99.90
18426;DHT22;9340;48.756;9.226;2023-07-31T03:17:27;13.30;99.90
18426;DHT22;9340;48.756;9.226;2023-07-31T03:19:54;13.30;99.90
18426;DHT22;9340;48.756;9.226;2023-07-31T03:22:21;13.30;99.90
18426;DHT22;9340;48.756;9.226;2023-07-31T03:24:47;13.20;99.90
18426;DHT22;9340;48.756;9.226;2023-07-31T03:27:15;13.20;99.90
18426;DHT22;9340;48.756;9.226;2023-07-31T03:29:42;13.30;99.90
18426;DHT22;9340;48.756;9.226;2023-07-31T03:32:09;13.30;99.90
18426;DHT22;9340;48.756;9.226;2023-07-31T03:34:35;13.20;99.90
18426;DHT22;9340;48.756;9.226;2023-07-31T03:37:03;13.30;99.90
18426;DHT22;9340;48.756;9.226;2023-07-31T03:39:30;13.20;99.90
18426;DHT22;9340;48.756;9.226;2023-07-31T03:41:57;13.30;99.90
18426;DHT22;9340;48.756;9.226;2023-07-31T03:44:25;13.20;99.90
18426;DHT22;9340;48.756;9.226;2023-07-31T03:46:51;13.20;99.90
18426;DHT22;9340;48.756;9.226;2023-07-31T03:49:18;13.20;99.90
18426;DHT22;9340;48.756;9.226;2023-07-31T03:51:45;13.20;99.90
18426;DHT22;9340;48.756;9.226;2023-07-31T03:54:11;13.20;99.90
18426;DHT22;9340;48.756;9.226;2023-07-31T03:56:38;13.20;99.90
18426;DHT22;9340;48.756;9.226;2023-07-31T03:59:05;13.30;99.90
18426;DHT22;9340;48.756;9.226;2023-07-31T04:01:33;13.30;99.90
18426;DHT22;9340;48.756;9.226;2023-07-31T04:04:00;13.40;99.90
18426;DHT22;9340;48.756;9.226;2023-07-31T04:06:26;13.40;99.90
18426;DHT22;9340;48.756;9.226;2023-07-31T04:08:53;13.50;99.90
18426;DHT22;9340;48.756;9.226;2023-07-31T04:11:19;13.60;99.90
18426;DHT22;9340;48.756;9.226;2023-07-31T04:13:46;13.80;99.90
18426;DHT22;9340;48.756;9.226;2023-07-31T04:16:13;13.90;99.90
18426;DHT22;9340;48.756;9.226;2023-07-31T04:18:41;14.00;99.90
18426;DHT22;9340;48.756;9.226;2023-07-31T04:21:07;14.20;99.90
18426;DHT22;9340;48.756;9.226;2023-07-31T04:23:35;14.30;99.90
18426;DHT22;9340;48.756;9.226;2023-07-31T04:26:02;14.50;99.90
18426;DHT22;9340;48.756;9.226;2023-07-31T04:28:29;14.50;99.90
18426;DHT22;9340;48.756;9.226;2023-07-31T04:30:57;14.60;99.90
18426;DHT22;9340;48.756;9.226;2023-07-31T04:33:24;14.70;99.90
18426;DHT22;9340;48.756;9.226;2023-07-31T04:35:53;14.80;99.90
18426;DHT22;9340;48.756;9.226;2023-07-31T04:38:20;14.90;99.90
18426;DHT22;9340;48.756;9.226;2023-07-31T04:40:47;15.00;99.90
18426;DHT22;9340;48.756;9.226;2023-07-31T04:43:14;15.10;99.90
18426;DHT22;9340;48.756;9.226;2023-07-31T04:45:42;15.20;99.90
18426;DHT22;9340;48.756;9.226;2023-07-31T04:48:11;15.30;99.90
18426;DHT22;9340;48.756;9.226;2023-07-31T04:50:38;15.30;99.90
18426;DHT22;9340;48.756;9.226;2023-07-31T04:53:05;15.40;99.90
18426;DHT22;9340;48.756;9.226;2023-07-31T04:55:32;15.60;99.90
18426;DHT22;9340;48.756;9.226;2023-07-31T04:57:59;15.70;99.90
18426;DHT22;9340;48.756;9.226;2023-07-31T05:00:26;15.80;99.90
18426;DHT22;9340;48.756;9.226;2023-07-31T05:02:52;15.90;99.90
18426;DHT22;9340;48.756;9.226;2023-07-31T05:05:19;16.10;99.90
18426;DHT22;9340;48.756;9.226;2023-07-31T05:07:46;16.10;99.90
18426;DHT22;9340;48.756;9.226;2023-07-31T05:10:14;16.10;99.90
18426;DHT22;9340;48.756;9.226;2023-07-31T05:12:40;16.20;99.90
18426;DHT22;9340;48.756;9.226;2023-07-31T05:15:08;16.20;99.90
18426;DHT22;9340;48.756;9.226;2023-07-31T05:17:35;16.30;99.90
18426;DHT22;9340;48.756;9.226;2023-07-31T05:20:02;16.30;99.90
18426;DHT22;9340;48.756;9.226;2023-07-31T05:22:28;16.40;99.90
18426;DHT22;9340;48.756;9.226;2023-07-31T05:24:55;16.50;99.90
18426;DHT22;9340;48.756;9.226;2023-07-31T05:27:23;16.50;99.90
18426;DHT22;9340;48.756;9.226;2023-07-31T05:29:50;16.50;99.90
18426;DHT22;9340;48.756;9.226;2023-07-31T05:32:16;16.60;99.90
18426;DHT22;9340;48.756;9.226;2023-07-31T05:34:43;16.60;99.90
18426;DHT22;9340;48.756;9.226;2023-07-31T05:37:10;16.70;99.90
18426;DHT22;9340;48.756;9.226;2023-07-31T05:39:37;16.80;99.90
18426;DHT22;9340;48.756;9.226;2023-07-31T05:42:05;16.90;99.90
18426;DHT22;9340;48.756;9.226;2023-07-31T05:44:33;17.10;99.90
18426;DHT22;9340;48.756;9.226;2023-07-31T05:46:59;17.40;99.90
18426;DHT22;9340;48.756;9.226;2023-07-31T05:49:26;17.80;99.90
18426;DHT22;9340;48.756;9.226;2023-07-31T05:51:53;18.40;99.90
18426;DHT22;9340;48.756;9.226;2023-07-31T05:54:19;18.90;99.90
18426;DHT22;9340;48.756;9.226;2023-07-31T05:56:46;19.60;99.90
18426;DHT22;9340;48.756;9.226;2023-07-31T05:59:13;20.10;99.90
18426;DHT22;9340;48.756;9.226;2023-07-31T06:01:41;20.00;99.90
18426;DHT22;9340;48.756;9.226;2023-07-31T06:04:07;19.80;99.90
18426;DHT22;9340;48.756;9.226;2023-07-31T06:06:34;19.70;99.90
18426;DHT22;9340;48.756;9.226;2023-07-31T06:09:01;19.50;99.90
18426;DHT22;9340;48.756;9.226;2023-07-31T06:11:28;19.50;99.90
18426;DHT22;9340;48.756;9.226;2023-07-31T06:13:55;19.50;99.90
18426;DHT22;9340;48.756;9.226;2023-07-31T06:16:22;19.60;99.90
18426;DHT22;9340;48.756;9.226;2023-07-31T06:18:50;20.00;99.90
18426;DHT22;9340;48.756;9.226;2023-07-31T06:21:17;20.10;99.90
18426;DHT22;9340;48.756;9.226;2023-07-31T06:23:44;20.10;99.90
18426;DHT22;9340;48.756;9.226;2023-07-31T06:26:10;20.00;99.90
18426;DHT22;9340;48.756;9.226;2023-07-31T06:28:37;19.90;99.90
18426;DHT22;9340;48.756;9.226;2023-07-31T06:31:03;19.70;99.90
18426;DHT22;9340;48.756;9.226;2023-07-31T06:33:30;19.80;99.90
18426;DHT22;9340;48.756;9.226;2023-07-31T06:35:58;20.00;99.90
18426;DHT22;9340;48.756;9.226;2023-07-31T06:38:26;20.40;99.90
18426;DHT22;9340;48.756;9.226;2023-07-31T06:40:53;20.70;99.90
18426;DHT22;9340;48.756;9.226;2023-07-31T06:43:19;20.90;99.90
18426;DHT22;9340;48.756;9.226;2023-07-31T06:45:46;21.20;99.90
18426;DHT22;9340;48.756;9.226;2023-07-31T06:48:15;21.30;99.90
18426;DHT22;9340;48.756;9.226;2023-07-31T06:50:42;21.30;99.90
18426;DHT22;9340;48.756;9.226;2023-07-31T06:53:10;21.30;99.90
18426;DHT22;9340;48.756;9.226;2023-07-31T06:55:37;21.30;99.90
18426;DHT22;9340;48.756;9.226;2023-07-31T06:58:03;21.40;99.90
18426;DHT22;9340;48.756;9.226;2023-07-31T07:00:30;21.30;99.90
18426;DHT22;9340;48.756;9.226;2023-07-31T07:02:57;21.40;99.90
18426;DHT22;9340;48.756;9.226;2023-07-31T07:05:24;21.50;99.90
18426;DHT22;9340;48.756;9.226;2023-07-31T07:07:51;21.60;99.90
18426;DHT22;9340;48.756;9.226;2023-07-31T07:10:19;21.90;99.90
18426;DHT22;9340;48.756;9.226;2023-07-31T07:12:46;22.00;99.90
18426;DHT22;9340;48.756;9.226;2023-07-31T07:15:12;22.00;99.90
18426;DHT22;9340;48.756;9.226;2023-07-31T07:17:39;22.00;99.90
18426;DHT22;9340;48.756;9.226;2023-07-31T07:20:07;22.10;99.90
18426;DHT22;9340;48.756;9.226;2023-07-31T07:22:34;22.30;99.90
18426;DHT22;9340;48.756;9.226;2023-07-31T07:25:01;22.60;99.90
18426;DHT22;9340;48.756;9.226;2023-07-31T07:27:29;22.90;99.90
18426;DHT22;9340;48.756;9.226;2023-07-31T07:29:56;23.10;99.90
18426;DHT22;9340;48.756;9.226;2023-07-31T07:32:23;23.10;99.90
18426;DHT22;9340;48.756;9.226;2023-07-31T07:34:50;23.30;99.90
18426;DHT22;9340;48.756;9.226;2023-07-31T07:37:16;23.40;99.90
18426;DHT22;9340;48.756;9.226;2023-07-31T07:39:43;23.30;99.90
18426;DHT22;9340;48.756;9.226;2023-07-31T07:42:10;23.30;99.90
18426;DHT22;9340;48.756;9.226;2023-07-31T07:44:38;23.30;99.90
18426;DHT22;9340;48.756;9.226;2023-07-31T07:47:05;23.20;99.90
18426;DHT22;9340;48.756;9.226;2023-07-31T07:49:32;23.00;99.90
18426;DHT22;9340;48.756;9.226;2023-07-31T07:51:59;23.00;99.90
18426;DHT22;9340;48.756;9.226;2023-07-31T07:54:26;22.90;99.90
18426;DHT22;9340;48.756;9.226;2023-07-31T07:56:52;22.80;99.90
18426;DHT22;9340;48.756;9.226;2023-07-31T07:59:20;22.70;99.90
18426;DHT22;9340;48.756;9.226;2023-07-31T08:01:48;22.60;99.90
18426;DHT22;9340;48.756;9.226;2023-07-31T08:04:14;22.70;99.90
18426;DHT22;9340;48.756;9.226;2023-07-31T08:06:41;22.80;99.90
18426;DHT22;9340;48.756;9.226;2023-07-31T08:09:08;22.60;99.90
18426;DHT22;9340;48.756;9.226;2023-07-31T08:11:34;22.60;99.90
18426;DHT22;9340;48.756;9.226;2023-07-31T08:14:01;22.80;99.90
18426;DHT22;9340;48.756;9.226;2023-07-31T08:16:28;22.60;99.90
18426;DHT22;9340;48.756;9.226;2023-07-31T08:18:56;22.80;99.90
18426;DHT22;9340;48.756;9.226;2023-07-31T08:21:23;22.70;99.90
18426;DHT22;9340;48.756;9.226;2023-07-31T08:23:49;22.60;99.90
18426;DHT22;9340;48.756;9.226;2023-07-31T08:26:16;22.60;99.90
18426;DHT22;9340;48.756;9.226;2023-07-31T08:28:44;22.40;99.90
18426;DHT22;9340;48.756;9.226;2023-07-31T08:31:11;22.50;99.90
18426;DHT22;9340;48.756;9.226;2023-07-31T08:33:37;22.60;99.90
18426;DHT22;9340;48.756;9.226;2023-07-31T08:36:07;22.80;99.90
18426;DHT22;9340;48.756;9.226;2023-07-31T08:38:33;23.00;99.90
18426;DHT22;9340;48.756;9.226;2023-07-31T08:41:00;23.30;99.90
18426;DHT22;9340;48.756;9.226;2023-07-31T08:43:27;23.70;99.90
18426;DHT22;9340;48.756;9.226;2023-07-31T08:45:54;24.00;99.90
18426;DHT22;9340;48.756;9.226;2023-07-31T08:48:22;24.30;99.90
18426;DHT22;9340;48.756;9.226;2023-07-31T08:50:49;24.50;99.90
18426;DHT22;9340;48.756;9.226;2023-07-31T08:53:17;24.80;99.90
18426;DHT22;9340;48.756;9.226;2023-07-31T08:55:44;25.00;99.90
18426;DHT22;9340;48.756;9.226;2023-07-31T08:58:12;24.80;99.90
18426;DHT22;9340;48.756;9.226;2023-07-31T09:00:40;25.00;99.90
18426;DHT22;9340;48.756;9.226;2023-07-31T09:03:12;25.10;99.90
18426;DHT22;9340;48.756;9.226;2023-07-31T09:05:42;25.00;99.90
18426;DHT22;9340;48.756;9.226;2023-07-31T09:08:10;25.00;99.90
18426;DHT22;9340;48.756;9.226;2023-07-31T09:10:41;24.90;99.90
18426;DHT22;9340;48.756;9.226;2023-07-31T09:13:08;24.80;99.90
18426;DHT22;9340;48.756;9.226;2023-07-31T09:15:36;24.50;99.90
18426;DHT22;9340;48.756;9.226;2023-07-31T09:18:04;24.40;99.90
18426;DHT22;9340;48.756;9.226;2023-07-31T09:20:31;24.20;99.90
18426;DHT22;9340;48.756;9.226;2023-07-31T09:23:05;24.10;99.90
18426;DHT22;9340;48.756;9.226;2023-07-31T09:25:33;24.20;99.90
18426;DHT22;9340;48.756;9.226;2023-07-31T09:28:03;24.40;99.90
18426;DHT22;9340;48.756;9.226;2023-07-31T09:30:30;24.60;99.90
18426;DHT22;9340;48.756;9.226;2023-07-31T09:33:01;25.00;99.90
18426;DHT22;9340;48.756;9.226;2023-07-31T09:35:30;25.20;99.90
18426;DHT22;9340;48.756;9.226;2023-07-31T09:37:58;25.50;99.90
18426;DHT22;9340;48.756;9.226;2023-07-31T09:40:27;25.60;99.90
18426;DHT22;9340;48.756;9.226;2023-07-31T09:42:55;25.70;99.90
18426;DHT22;9340;48.756;9.226;2023-07-31T09:45:24;25.70;99.90
18426;DHT22;9340;48.756;9.226;2023-07-31T09:47:51;25.50;99.90
18426;DHT22;9340;48.756;9.226;2023-07-31T09:52:45;25.10;99.90
18426;DHT22;9340;48.756;9.226;2023-07-31T09:55:12;25.00;99.90
18426;DHT22;9340;48.756;9.226;2023-07-31T09:57:40;24.80;99.90
18426;DHT22;9340;48.756;9.226;2023-07-31T10:00:09;24.80;99.90
18426;DHT22;9340;48.756;9.226;2023-07-31T10:02:38;24.70;99.90
18426;DHT22;9340;48.756;9.226;2023-07-31T10:05:06;24.80;99.90
18426;DHT22;9340;48.756;9.226;2023-07-31T10:07:38;25.20;99.90
18426;DHT22;9340;48.756;9.226;2023-07-31T10:10:07;25.20;99.90
18426;DHT22;9340;48.756;9.226;2023-07-31T10:12:34;25.40;99.90
18426;DHT22;9340;48.756;9.226;2023-07-31T10:15:03;25.40;99.90
18426;DHT22;9340;48.756;9.226;2023-07-31T10:17:30;25.30;99.90
18426;DHT22;9340;48.756;9.226;2023-07-31T10:19:59;24.70;99.90
18426;DHT22;9340;48.756;9.226;2023-07-31T10:22:29;25.10;99.90
18426;DHT22;9340;48.756;9.226;2023-07-31T10:24:57;25.40;99.90
18426;DHT22;9340;48.756;9.226;2023-07-31T10:27:24;25.50;99.90
18426;DHT22;9340;48.756;9.226;2023-07-31T10:29:52;25.80;99.90
18426;DHT22;9340;48.756;9.226;2023-07-31T10:32:20;25.90;99.90
18426;DHT22;9340;48.756;9.226;2023-07-31T10:34:48;26.10;99.90
18426;DHT22;9340;48.756;9.226;2023-07-31T10:37:27;26.40;99.90
18426;DHT22;9340;48.756;9.226;2023-07-31T10:39:59;26.50;99.90
18426;DHT22;9340;48.756;9.226;2023-07-31T10:42:31;26.30;99.90
18426;DHT22;9340;48.756;9.226;2023-07-31T10:45:01;26.70;99.90
18426;DHT22;9340;48.756;9.226;2023-07-31T10:47:28;26.50;99.90
18426;DHT22;9340;48.756;9.226;2023-07-31T10:50:13;26.60;99.90
18426;DHT22;9340;48.756;9.226;2023-07-31T10:52:44;26.50;99.90
18426;DHT22;9340;48.756;9.226;2023-07-31T10:55:16;26.40;99.90
18426;DHT22;9340;48.756;9.226;2023-07-31T10:57:48;26.30;99.90
18426;DHT22;9340;48.756;9.226;2023-07-31T11:00:20;26.30;99.90
18426;DHT22;9340;48.756;9.226;2023-07-31T11:02:57;26.50;99.90
18426;DHT22;9340;48.756;9.226;2023-07-31T11:05:45;26.70;99.90
18426;DHT22;9340;48.756;9.226;2023-07-31T11:08:16;26.80;99.90
18426;DHT22;9340;48.756;9.226;2023-07-31T11:10:44;26.90;99.90
18426;DHT22;9340;48.756;9.226;2023-07-31T11:13:11;26.90;99.90
18426;DHT22;9340;48.756;9.226;2023-07-31T11:15:38;27.00;99.90
18426;DHT22;9340;48.756;9.226;2023-07-31T11:18:05;27.10;99.90
18426;DHT22;9340;48.756;9.226;2023-07-31T11:20:34;27.40;99.90
18426;DHT22;9340;48.756;9.226;2023-07-31T11:23:02;27.30;99.90
18426;DHT22;9340;48.756;9.226;2023-07-31T11:25:30;26.60;99.90
18426;DHT22;9340;48.756;9.226;2023-07-31T11:28:01;26.60;99.90
18426;DHT22;9340;48.756;9.226;2023-07-31T11:30:28;26.60;99.90
18426;DHT22;9340;48.756;9.226;2023-07-31T11:32:55;26.60;99.90
18426;DHT22;9340;48.756;9.226;2023-07-31T11:35:22;26.70;99.90
18426;DHT22;9340;48.756;9.226;2023-07-31T11:37:48;26.90;99.90
18426;DHT22;9340;48.756;9.226;2023-07-31T11:40:16;26.50;99.90
18426;DHT22;9340;48.756;9.226;2023-07-31T11:42:44;26.10;99.90
18426;DHT22;9340;48.756;9.226;2023-07-31T11:45:11;25.90;99.90
18426;DHT22;9340;48.756;9.226;2023-07-31T11:47:38;26.00;99.90
18426;DHT22;9340;48.756;9.226;2023-07-31T11:50:07;25.70;99.90
18426;DHT22;9340;48.756;9.226;2023-07-31T11:52:38;25.60;99.90
18426;DHT22;9340;48.756;9.226;2023-07-31T11:55:08;25.80;99.90
18426;DHT22;9340;48.756;9.226;2023-07-31T11:57:37;25.90;99.90
18426;DHT22;9340;48.756;9.226;2023-07-31T12:00:07;26.10;99.90
18426;DHT22;9340;48.756;9.226;2023-07-31T12:02:35;26.30;99.90
18426;DHT22;9340;48.756;9.226;2023-07-31T12:05:02;26.40;99.90
18426;DHT22;9340;48.756;9.226;2023-07-31T12:07:46;26.40;99.90
18426;DHT22;9340;48.756;9.226;2023-07-31T12:10:25;26.80;99.90
18426;DHT22;9340;48.756;9.226;2023-07-31T12:13:00;27.10;99.90
18426;DHT22;9340;48.756;9.226;2023-07-31T12:15:34;27.20;99.90
18426;DHT22;9340;48.756;9.226;2023-07-31T12:18:04;26.90;99.90
18426;DHT22;9340;48.756;9.226;2023-07-31T12:20:32;27.00;99.90
18426;DHT22;9340;48.756;9.226;2023-07-31T12:22:59;26.90;99.90
18426;DHT22;9340;48.756;9.226;2023-07-31T12:25:30;26.90;99.90
18426;DHT22;9340;48.756;9.226;2023-07-31T12:27:57;26.80;99.90
18426;DHT22;9340;48.756;9.226;2023-07-31T12:30:28;26.70;99.90
18426;DHT22;9340;48.756;9.226;2023-07-31T12:32:56;26.30;99.90
18426;DHT22;9340;48.756;9.226;2023-07-31T12:35:22;26.40;99.90
18426;DHT22;9340;48.756;9.226;2023-07-31T12:37:49;26.20;99.90
18426;DHT22;9340;48.756;9.226;2023-07-31T12:40:16;26.20;99.90
18426;DHT22;9340;48.756;9.226;2023-07-31T12:42:43;26.30;99.90
18426;DHT22;9340;48.756;9.226;2023-07-31T12:45:09;26.30;99.90
18426;DHT22;9340;48.756;9.226;2023-07-31T12:47:36;26.20;99.90
18426;DHT22;9340;48.756;9.226;2023-07-31T12:50:05;26.10;99.90
18426;DHT22;9340;48.756;9.226;2023-07-31T12:52:32;26.20;99.90
18426;DHT22;9340;48.756;9.226;2023-07-31T12:54:59;26.00;99.90
18426;DHT22;9340;48.756;9.226;2023-07-31T12:57:25;25.80;99.90
18426;DHT22;9340;48.756;9.226;2023-07-31T12:59:52;25.70;99.90
18426;DHT22;9340;48.756;9.226;2023-07-31T13:02:19;25.60;99.90
18426;DHT22;9340;48.756;9.226;2023-07-31T13:04:45;25.60;99.90
18426;DHT22;9340;48.756;9.226;2023-07-31T13:07:13;25.70;99.90
18426;DHT22;9340;48.756;9.226;2023-07-31T13:09:40;25.80;99.90
18426;DHT22;9340;48.756;9.226;2023-07-31T13:12:07;25.70;99.90
18426;DHT22;9340;48.756;9.226;2023-07-31T13:14:34;25.70;99.90
18426;DHT22;9340;48.756;9.226;2023-07-31T13:17:00;25.80;99.90
18426;DHT22;9340;48.756;9.226;2023-07-31T13:19:27;25.80;99.90
18426;DHT22;9340;48.756;9.226;2023-07-31T13:21:54;25.70;99.90
18426;DHT22;9340;48.756;9.226;2023-07-31T13:24:22;25.90;99.90
18426;DHT22;9340;48.756;9.226;2023-07-31T13:26:48;26.20;99.90
18426;DHT22;9340;48.756;9.226;2023-07-31T13:29:15;26.30;99.90
18426;DHT22;9340;48.756;9.226;2023-07-31T13:31:42;26.60;99.90
18426;DHT22;9340;48.756;9.226;2023-07-31T13:34:08;26.50;99.90
18426;DHT22;9340;48.756;9.226;2023-07-31T13:36:35;26.60;99.90
18426;DHT22;9340;48.756;9.226;2023-07-31T13:39:02;26.80;99.90
18426;DHT22;9340;48.756;9.226;2023-07-31T13:41:30;26.60;99.90
18426;DHT22;9340;48.756;9.226;2023-07-31T13:43:57;27.00;99.90
18426;DHT22;9340;48.756;9.226;2023-07-31T13:46:24;26.90;99.90
18426;DHT22;9340;48.756;9.226;2023-07-31T13:48:51;26.60;99.90
18426;DHT22;9340;48.756;9.226;2023-07-31T13:51:20;26.50;99.90
18426;DHT22;9340;48.756;9.226;2023-07-31T13:53:46;26.70;99.90
18426;DHT22;9340;48.756;9.226;2023-07-31T13:56:13;26.80;99.90
18426;DHT22;9340;48.756;9.226;2023-07-31T13:58:41;26.90;99.90
18426;DHT22;9340;48.756;9.226;2023-07-31T14:01:08;26.80;99.90
18426;DHT22;9340;48.756;9.226;2023-07-31T14:03:34;26.90;99.90
18426;DHT22;9340;48.756;9.226;2023-07-31T14:06:01;27.10;99.90
18426;DHT22;9340;48.756;9.226;2023-07-31T14:08:28;27.00;99.90
18426;DHT22;9340;48.756;9.226;2023-07-31T14:10:55;26.60;99.90
18426;DHT22;9340;48.756;9.226;2023-07-31T14:13:22;26.20;99.90
18426;DHT22;9340;48.756;9.226;2023-07-31T14:15:50;26.30;99.90
18426;DHT22;9340;48.756;9.226;2023-07-31T14:18:17;26.30;99.90
18426;DHT22;9340;48.756;9.226;2023-07-31T14:20:44;26.00;99.90
18426;DHT22;9340;48.756;9.226;2023-07-31T14:23:11;26.00;99.90
18426;DHT22;9340;48.756;9.226;2023-07-31T14:25:37;26.10;99.90
18426;DHT22;9340;48.756;9.226;2023-07-31T14:28:04;26.30;99.90
18426;DHT22;9340;48.756;9.226;2023-07-31T14:30:31;26.00;99.90
18426;DHT22;9340;48.756;9.226;2023-07-31T14:32:59;26.20;99.90
18426;DHT22;9340;48.756;9.226;2023-07-31T14:35:27;26.30;99.90
18426;DHT22;9340;48.756;9.226;2023-07-31T14:37:54;26.60;99.90
18426;DHT22;9340;48.756;9.226;2023-07-31T14:40:21;26.70;99.90
18426;DHT22;9340;48.756;9.226;2023-07-31T14:42:47;26.60;99.90
18426;DHT22;9340;48.756;9.226;2023-07-31T14:45:14;26.60;99.90
18426;DHT22;9340;48.756;9.226;2023-07-31T14:47:41;26.50;99.90
18426;DHT22;9340;48.756;9.226;2023-07-31T14:50:10;26.60;99.90
18426;DHT22;9340;48.756;9.226;2023-07-31T14:52:37;26.60;99.90
18426;DHT22;9340;48.756;9.226;2023-07-31T14:55:04;26.70;99.90
18426;DHT22;9340;48.756;9.226;2023-07-31T14:57:31;26.90;99.90
18426;DHT22;9340;48.756;9.226;2023-07-31T14:59:57;27.10;99.90
18426;DHT22;9340;48.756;9.226;2023-07-31T15:02:25;27.30;99.90
18426;DHT22;9340;48.756;9.226;2023-07-31T15:04:52;27.20;99.90
18426;DHT22;9340;48.756;9.226;2023-07-31T15:07:20;27.30;99.90
18426;DHT22;9340;48.756;9.226;2023-07-31T15:09:47;27.40;99.90
18426;DHT22;9340;48.756;9.226;2023-07-31T15:12:14;27.20;99.90
18426;DHT22;9340;48.756;9.226;2023-07-31T15:14:40;26.90;99.90
18426;DHT22;9340;48.756;9.226;2023-07-31T15:17:07;26.90;99.90
18426;DHT22;9340;48.756;9.226;2023-07-31T15:19:34;27.10;99.90
18426;DHT22;9340;48.756;9.226;2023-07-31T15:22:02;27.50;99.90
18426;DHT22;9340;48.756;9.226;2023-07-31T15:24:30;27.80;99.90
18426;DHT22;9340;48.756;9.226;2023-07-31T15:26:57;27.90;99.90
18426;DHT22;9340;48.756;9.226;2023-07-31T15:29:24;27.90;99.90
18426;DHT22;9340;48.756;9.226;2023-07-31T15:31:51;27.90;99.90
18426;DHT22;9340;48.756;9.226;2023-07-31T15:34:17;28.00;99.90
18426;DHT22;9340;48.756;9.226;2023-07-31T15:36:44;27.90;99.90
18426;DHT22;9340;48.756;9.226;2023-07-31T15:39:11;28.00;99.90
18426;DHT22;9340;48.756;9.226;2023-07-31T15:41:39;27.80;99.90
18426;DHT22;9340;48.756;9.226;2023-07-31T15:44:07;27.50;99.90
18426;DHT22;9340;48.756;9.226;2023-07-31T15:46:34;26.90;99.90
18426;DHT22;9340;48.756;9.226;2023-07-31T15:49:00;26.80;99.90
18426;DHT22;9340;48.756;9.226;2023-07-31T15:51:27;26.50;99.90
18426;DHT22;9340;48.756;9.226;2023-07-31T15:53:54;25.90;99.90
18426;DHT22;9340;48.756;9.226;2023-07-31T15:56:20;25.90;99.90
18426;DHT22;9340;48.756;9.226;2023-07-31T15:58:48;25.90;99.90
18426;DHT22;9340;48.756;9.226;2023-07-31T16:01:15;25.90;99.90